sensor_id;sensor_type;location;lat;lon;timestamp;noise_LAeq;noise_LA_min;noise_LA_max;noise_LA01;noise_LA95
72276;Laerm;61204;49.980;8.358;2023-12-29T00:01:59;55.41;49.59;71.26;;
72276;Laerm;61204;49.980;8.358;2023-12-29T00:04:27;51.91;44.78;65.52;;
72276;Laerm;61204;49.980;8.358;2023-12-29T00:06:54;54.98;49.14;70.78;;
72276;Laerm;61204;49.980;8.358;2023-12-29T00:09:20;52.76;47.46;64.33;;
72276;Laerm;61204;49.980;8.358;2023-12-29T00:11:49;57.43;47.50;81.05;;
72276;Laerm;61204;49.980;8.358;2023-12-29T00:14:14;55.98;48.84;73.73;;
72276;Laerm;61204;49.980;8.358;2023-12-29T00:16:40;52.03;43.01;70.20;;
72276;Laerm;61204;49.980;8.358;2023-12-29T00:19:05;57.88;45.31;78.10;;
72276;Laerm;61204;49.980;8.358;2023-12-29T00:21:31;53.74;47.67;71.41;;
72276;Laerm;61204;49.980;8.358;2023-12-29T00:23:57;54.66;46.37;72.10;;
72276;Laerm;61204;49.980;8.358;2023-12-29T00:26:23;55.45;46.98;72.39;;
72276;Laerm;61204;49.980;8.358;2023-12-29T00:28:48;56.76;47.12;75.00;;
72276;Laerm;61204;49.980;8.358;2023-12-29T00:31:15;56.30;47.46;76.28;;
72276;Laerm;61204;49.980;8.358;2023-12-29T00:33:43;54.07;46.71;73.32;;
72276;Laerm;61204;49.980;8.358;2023-12-29T00:36:14;52.58;44.98;65.07;;
72276;Laerm;61204;49.980;8.358;2023-12-29T00:38:40;53.29;45.21;68.53;;
72276;Laerm;61204;49.980;8.358;2023-12-29T00:41:05;53.82;47.57;67.15;;
72276;Laerm;61204;49.980;8.358;2023-12-29T00:43:31;53.39;46.25;69.68;;
72276;Laerm;61204;49.980;8.358;2023-12-29T00:45:56;53.84;46.35;70.59;;
72276;Laerm;61204;49.980;8.358;2023-12-29T00:48:22;54.24;45.93;82.44;;
72276;Laerm;61204;49.980;8.358;2023-12-29T00:50:47;52.95;46.63;66.85;;
72276;Laerm;61204;49.980;8.358;2023-12-29T00:53:13;53.96;46.19;65.47;;
72276;Laerm;61204;49.980;8.358;2023-12-29T00:55:38;53.74;47.46;68.41;;
72276;Laerm;61204;49.980;8.358;2023-12-29T00:58:04;52.45;45.35;73.11;;
72276;Laerm;61204;49.980;8.358;2023-12-29T01:00:32;54.07;46.15;65.28;;
72276;Laerm;61204;49.980;8.358;2023-12-29T01:02:58;51.85;43.35;67.11;;
72276;Laerm;61204;49.980;8.358;2023-12-29T01:05:23;51.79;45.85;61.30;;
72276;Laerm;61204;49.980;8.358;2023-12-29T01:07:49;49.12;43.34;58.70;;
72276;Laerm;61204;49.980;8.358;2023-12-29T01:10:15;53.05;46.79;64.24;;
72276;Laerm;61204;49.980;8.358;2023-12-29T01:12:40;52.21;45.67;68.34;;
72276;Laerm;61204;49.980;8.358;2023-12-29T01:15:06;51.51;46.16;61.84;;
72276;Laerm;61204;49.980;8.358;2023-12-29T01:17:32;52.16;45.34;68.72;;
72276;Laerm;61204;49.980;8.358;2023-12-29T01:19:57;55.03;47.29;69.42;;
72276;Laerm;61204;49.980;8.358;2023-12-29T01:22:23;50.09;43.46;60.89;;
72276;Laerm;61204;49.980;8.358;2023-12-29T01:24:49;53.01;46.30;70.17;;
72276;Laerm;61204;49.980;8.358;2023-12-29T01:27:14;49.61;42.43;60.39;;
72276;Laerm;61204;49.980;8.358;2023-12-29T01:29:40;51.31;44.62;71.23;;
72276;Laerm;61204;49.980;8.358;2023-12-29T01:32:06;54.95;45.65;77.97;;
72276;Laerm;61204;49.980;8.358;2023-12-29T01:34:34;54.07;45.97;73.35;;
72276;Laerm;61204;49.980;8.358;2023-12-29T01:37:03;53.64;47.23;68.36;;
72276;Laerm;61204;49.980;8.358;2023-12-29T01:39:30;54.21;47.16;67.04;;
72276;Laerm;61204;49.980;8.358;2023-12-29T01:41:58;53.34;42.87;73.53;;
72276;Laerm;61204;49.980;8.358;2023-12-29T01:44:25;49.87;42.97;61.70;;
72276;Laerm;61204;49.980;8.358;2023-12-29T01:46:55;52.80;41.88;77.16;;
72276;Laerm;61204;49.980;8.358;2023-12-29T01:49:22;54.75;46.37;72.45;;
72276;Laerm;61204;49.980;8.358;2023-12-29T01:52:00;57.12;46.64;79.78;;
72276;Laerm;61204;49.980;8.358;2023-12-29T01:54:36;61.05;45.80;80.84;;
72276;Laerm;61204;49.980;8.358;2023-12-29T01:57:04;61.82;48.09;81.14;;
72276;Laerm;61204;49.980;8.358;2023-12-29T01:59:32;62.45;45.97;83.28;;
72276;Laerm;61204;49.980;8.358;2023-12-29T02:01:58;67.99;44.43;89.13;;
72276;Laerm;61204;49.980;8.358;2023-12-29T02:04:27;64.74;45.71;83.76;;
72276;Laerm;61204;49.980;8.358;2023-12-29T02:06:54;65.47;45.76;84.72;;
72276;Laerm;61204;49.980;8.358;2023-12-29T02:09:21;62.37;43.87;80.99;;
72276;Laerm;61204;49.980;8.358;2023-12-29T02:11:50;63.15;47.55;86.79;;
72276;Laerm;61204;49.980;8.358;2023-12-29T02:14:18;65.84;45.89;87.99;;
72276;Laerm;61204;49.980;8.358;2023-12-29T02:17:19;59.66;46.93;86.53;;
72276;Laerm;61204;49.980;8.358;2023-12-29T02:19:49;56.49;46.22;75.87;;
72276;Laerm;61204;49.980;8.358;2023-12-29T02:22:16;65.32;46.25;87.38;;
72276;Laerm;61204;49.980;8.358;2023-12-29T02:24:50;56.92;47.19;76.46;;
72276;Laerm;61204;49.980;8.358;2023-12-29T02:27:51;62.92;48.56;83.31;;
72276;Laerm;61204;49.980;8.358;2023-12-29T02:30:35;56.43;44.87;77.38;;
72276;Laerm;61204;49.980;8.358;2023-12-29T02:33:11;52.05;45.33;66.83;;
72276;Laerm;61204;49.980;8.358;2023-12-29T02:35:43;60.58;46.48;89.42;;
72276;Laerm;61204;49.980;8.358;2023-12-29T02:38:13;54.09;44.11;73.14;;
72276;Laerm;61204;49.980;8.358;2023-12-29T02:40:39;55.40;43.42;77.21;;
72276;Laerm;61204;49.980;8.358;2023-12-29T02:43:09;53.44;44.06;69.94;;
72276;Laerm;61204;49.980;8.358;2023-12-29T02:45:35;60.10;46.72;80.33;;
72276;Laerm;61204;49.980;8.358;2023-12-29T02:48:04;55.86;45.29;72.10;;
72276;Laerm;61204;49.980;8.358;2023-12-29T02:50:29;60.61;46.91;81.31;;
72276;Laerm;61204;49.980;8.358;2023-12-29T02:52:55;55.11;46.61;74.24;;
72276;Laerm;61204;49.980;8.358;2023-12-29T02:55:20;54.71;46.39;71.23;;
72276;Laerm;61204;49.980;8.358;2023-12-29T02:57:47;56.29;46.41;79.01;;
72276;Laerm;61204;49.980;8.358;2023-12-29T03:00:13;59.19;45.37;79.32;;
72276;Laerm;61204;49.980;8.358;2023-12-29T03:02:39;62.01;46.26;85.11;;
72276;Laerm;61204;49.980;8.358;2023-12-29T03:05:05;68.95;46.32;91.17;;
72276;Laerm;61204;49.980;8.358;2023-12-29T03:07:31;61.70;46.50;82.10;;
72276;Laerm;61204;49.980;8.358;2023-12-29T03:09:57;61.01;48.19;78.49;;
72276;Laerm;61204;49.980;8.358;2023-12-29T03:12:22;66.38;46.71;85.73;;
72276;Laerm;61204;49.980;8.358;2023-12-29T03:14:48;66.29;45.83;84.00;;
72276;Laerm;61204;49.980;8.358;2023-12-29T03:17:13;67.88;46.57;91.79;;
72276;Laerm;61204;49.980;8.358;2023-12-29T03:19:42;71.23;47.21;94.13;;
72276;Laerm;61204;49.980;8.358;2023-12-29T03:22:07;66.30;46.59;89.27;;
72276;Laerm;61204;49.980;8.358;2023-12-29T03:24:33;67.56;45.47;93.65;;
72276;Laerm;61204;49.980;8.358;2023-12-29T03:26:58;67.38;48.57;86.35;;
72276;Laerm;61204;49.980;8.358;2023-12-29T03:29:24;67.52;47.35;89.20;;
72276;Laerm;61204;49.980;8.358;2023-12-29T03:31:52;60.31;47.41;82.43;;
72276;Laerm;61204;49.980;8.358;2023-12-29T03:34:17;61.75;46.36;82.69;;
72276;Laerm;61204;49.980;8.358;2023-12-29T03:36:45;61.37;44.98;84.33;;
72276;Laerm;61204;49.980;8.358;2023-12-29T03:39:10;61.06;46.68;88.02;;
72276;Laerm;61204;49.980;8.358;2023-12-29T03:41:36;68.14;48.01;90.21;;
72276;Laerm;61204;49.980;8.358;2023-12-29T03:44:01;61.80;47.85;82.06;;
72276;Laerm;61204;49.980;8.358;2023-12-29T03:46:28;57.24;44.51;83.51;;
72276;Laerm;61204;49.980;8.358;2023-12-29T03:48:54;60.26;46.47;82.05;;
72276;Laerm;61204;49.980;8.358;2023-12-29T03:51:20;64.14;47.82;86.47;;
72276;Laerm;61204;49.980;8.358;2023-12-29T03:53:46;58.20;47.56;78.27;;
72276;Laerm;61204;49.980;8.358;2023-12-29T03:56:17;67.13;47.74;86.65;;
72276;Laerm;61204;49.980;8.358;2023-12-29T03:58:47;62.47;48.45;87.64;;
72276;Laerm;61204;49.980;8.358;2023-12-29T04:01:15;59.19;49.75;79.34;;
72276;Laerm;61204;49.980;8.358;2023-12-29T04:03:42;58.17;48.26;85.22;;
72276;Laerm;61204;49.980;8.358;2023-12-29T04:06:10;62.48;48.11;83.62;;
72276;Laerm;61204;49.980;8.358;2023-12-29T04:08:37;61.30;48.49;79.03;;
72276;Laerm;61204;49.980;8.358;2023-12-29T04:11:05;65.63;49.01;88.59;;
72276;Laerm;61204;49.980;8.358;2023-12-29T04:13:31;64.28;46.53;83.06;;
72276;Laerm;61204;49.980;8.358;2023-12-29T04:15:59;59.99;49.40;77.76;;
72276;Laerm;61204;49.980;8.358;2023-12-29T04:18:25;60.50;49.28;78.40;;
72276;Laerm;61204;49.980;8.358;2023-12-29T04:20:50;63.89;49.20;83.48;;
72276;Laerm;61204;49.980;8.358;2023-12-29T04:23:16;59.11;50.02;80.10;;
72276;Laerm;61204;49.980;8.358;2023-12-29T04:25:42;57.64;50.44;73.74;;
72276;Laerm;61204;49.980;8.358;2023-12-29T04:28:08;58.84;49.34;83.38;;
72276;Laerm;61204;49.980;8.358;2023-12-29T04:30:37;56.48;49.56;70.41;;
72276;Laerm;61204;49.980;8.358;2023-12-29T04:33:03;61.26;50.61;81.36;;
72276;Laerm;61204;49.980;8.358;2023-12-29T04:35:31;60.55;50.91;79.46;;
72276;Laerm;61204;49.980;8.358;2023-12-29T04:37:57;62.93;50.11;86.19;;
72276;Laerm;61204;49.980;8.358;2023-12-29T04:40:22;59.90;49.55;79.99;;
72276;Laerm;61204;49.980;8.358;2023-12-29T04:42:48;63.46;50.28;81.10;;
72276;Laerm;61204;49.980;8.358;2023-12-29T04:45:13;60.95;50.02;83.21;;
72276;Laerm;61204;49.980;8.358;2023-12-29T04:47:39;67.28;50.71;90.27;;
72276;Laerm;61204;49.980;8.358;2023-12-29T04:50:08;65.50;49.73;88.68;;
72276;Laerm;61204;49.980;8.358;2023-12-29T04:52:34;64.07;49.71;88.41;;
72276;Laerm;61204;49.980;8.358;2023-12-29T04:55:02;63.01;49.43;81.34;;
72276;Laerm;61204;49.980;8.358;2023-12-29T04:57:27;66.83;50.10;85.92;;
72276;Laerm;61204;49.980;8.358;2023-12-29T04:59:53;62.11;51.83;82.93;;
72276;Laerm;61204;49.980;8.358;2023-12-29T05:02:21;66.59;51.89;86.85;;
72276;Laerm;61204;49.980;8.358;2023-12-29T05:04:46;63.93;49.97;85.06;;
72276;Laerm;61204;49.980;8.358;2023-12-29T05:07:14;63.76;49.82;85.64;;
72276;Laerm;61204;49.980;8.358;2023-12-29T05:09:40;63.20;50.24;83.81;;
72276;Laerm;61204;49.980;8.358;2023-12-29T05:12:06;62.86;51.91;84.53;;
72276;Laerm;61204;49.980;8.358;2023-12-29T05:14:32;62.84;52.89;81.24;;
72276;Laerm;61204;49.980;8.358;2023-12-29T05:17:09;62.54;51.29;83.84;;
72276;Laerm;61204;49.980;8.358;2023-12-29T05:19:34;68.79;50.06;88.13;;
72276;Laerm;61204;49.980;8.358;2023-12-29T05:22:00;65.54;51.43;87.67;;
72276;Laerm;61204;49.980;8.358;2023-12-29T05:24:25;67.90;51.93;90.44;;
72276;Laerm;61204;49.980;8.358;2023-12-29T05:26:51;66.40;52.05;87.01;;
72276;Laerm;61204;49.980;8.358;2023-12-29T05:29:16;62.69;51.93;82.27;;
72276;Laerm;61204;49.980;8.358;2023-12-29T05:31:44;67.62;51.41;91.53;;
72276;Laerm;61204;49.980;8.358;2023-12-29T05:34:10;62.39;51.63;80.84;;
72276;Laerm;61204;49.980;8.358;2023-12-29T05:36:39;66.81;52.42;87.89;;
72276;Laerm;61204;49.980;8.358;2023-12-29T05:39:06;69.13;51.96;88.33;;
72276;Laerm;61204;49.980;8.358;2023-12-29T05:41:31;66.97;52.74;86.40;;
72276;Laerm;61204;49.980;8.358;2023-12-29T05:43:57;63.18;50.36;83.11;;
72276;Laerm;61204;49.980;8.358;2023-12-29T05:46:24;62.83;51.66;85.58;;
72276;Laerm;61204;49.980;8.358;2023-12-29T05:48:50;61.06;51.60;81.27;;
72276;Laerm;61204;49.980;8.358;2023-12-29T05:51:18;65.26;52.31;84.12;;
72276;Laerm;61204;49.980;8.358;2023-12-29T05:53:43;59.48;52.05;82.25;;
72276;Laerm;61204;49.980;8.358;2023-12-29T05:56:13;57.08;51.41;71.03;;
72276;Laerm;61204;49.980;8.358;2023-12-29T05:58:43;62.83;52.29;82.87;;
72276;Laerm;61204;49.980;8.358;2023-12-29T06:01:09;64.82;50.13;83.25;;
72276;Laerm;61204;49.980;8.358;2023-12-29T06:03:40;59.01;50.63;80.40;;
72276;Laerm;61204;49.980;8.358;2023-12-29T06:06:06;58.35;51.97;76.30;;
72276;Laerm;61204;49.980;8.358;2023-12-29T06:08:31;62.60;51.58;86.62;;
72276;Laerm;61204;49.980;8.358;2023-12-29T06:10:57;65.54;52.37;89.67;;
72276;Laerm;61204;49.980;8.358;2023-12-29T06:13:22;62.69;52.61;79.94;;
72276;Laerm;61204;49.980;8.358;2023-12-29T06:15:48;60.78;52.06;79.29;;
72276;Laerm;61204;49.980;8.358;2023-12-29T06:18:14;62.45;54.01;85.28;;
72276;Laerm;61204;49.980;8.358;2023-12-29T06:20:39;60.24;51.46;81.39;;
72276;Laerm;61204;49.980;8.358;2023-12-29T06:23:05;60.63;51.79;77.63;;
72276;Laerm;61204;49.980;8.358;2023-12-29T06:25:31;59.03;52.60;74.71;;
72276;Laerm;61204;49.980;8.358;2023-12-29T06:27:58;59.77;53.65;84.19;;
72276;Laerm;61204;49.980;8.358;2023-12-29T06:30:23;61.10;53.11;82.02;;
72276;Laerm;61204;49.980;8.358;2023-12-29T06:32:52;61.52;52.90;83.25;;
72276;Laerm;61204;49.980;8.358;2023-12-29T06:35:18;58.47;53.41;74.60;;
72276;Laerm;61204;49.980;8.358;2023-12-29T06:37:46;59.95;52.52;79.45;;
72276;Laerm;61204;49.980;8.358;2023-12-29T06:40:12;59.60;52.12;81.33;;
72276;Laerm;61204;49.980;8.358;2023-12-29T06:42:37;59.55;53.49;71.79;;
72276;Laerm;61204;49.980;8.358;2023-12-29T06:45:05;59.08;52.63;77.83;;
72276;Laerm;61204;49.980;8.358;2023-12-29T06:47:33;60.08;52.91;75.69;;
72276;Laerm;61204;49.980;8.358;2023-12-29T06:49:59;61.00;51.55;81.36;;
72276;Laerm;61204;49.980;8.358;2023-12-29T06:52:24;57.68;51.50;74.27;;
72276;Laerm;61204;49.980;8.358;2023-12-29T06:54:50;64.78;52.67;84.54;;
72276;Laerm;61204;49.980;8.358;2023-12-29T06:57:16;58.30;52.14;71.93;;
72276;Laerm;61204;49.980;8.358;2023-12-29T06:59:42;58.36;52.52;84.27;;
72276;Laerm;61204;49.980;8.358;2023-12-29T07:02:07;65.54;52.51;85.46;;
72276;Laerm;61204;49.980;8.358;2023-12-29T07:04:33;58.03;52.32;75.60;;
72276;Laerm;61204;49.980;8.358;2023-12-29T07:07:00;59.40;53.72;76.05;;
72276;Laerm;61204;49.980;8.358;2023-12-29T07:09:27;62.25;53.31;81.00;;
72276;Laerm;61204;49.980;8.358;2023-12-29T07:11:53;57.50;52.38;70.34;;
72276;Laerm;61204;49.980;8.358;2023-12-29T07:14:18;59.24;53.02;73.54;;
72276;Laerm;61204;49.980;8.358;2023-12-29T07:16:44;58.48;52.50;72.77;;
72276;Laerm;61204;49.980;8.358;2023-12-29T07:19:10;63.02;53.81;84.02;;
72276;Laerm;61204;49.980;8.358;2023-12-29T07:21:38;62.55;53.90;81.67;;
72276;Laerm;61204;49.980;8.358;2023-12-29T07:24:04;66.34;52.33;89.67;;
72276;Laerm;61204;49.980;8.358;2023-12-29T07:26:29;63.07;52.52;82.49;;
72276;Laerm;61204;49.980;8.358;2023-12-29T07:28:57;63.24;53.23;82.58;;
72276;Laerm;61204;49.980;8.358;2023-12-29T07:31:23;59.61;52.73;78.44;;
72276;Laerm;61204;49.980;8.358;2023-12-29T07:33:51;60.41;53.41;82.41;;
72276;Laerm;61204;49.980;8.358;2023-12-29T07:36:19;64.77;52.90;84.50;;
72276;Laerm;61204;49.980;8.358;2023-12-29T07:38:44;69.86;54.69;87.63;;
72276;Laerm;61204;49.980;8.358;2023-12-29T07:41:10;68.40;52.74;86.95;;
72276;Laerm;61204;49.980;8.358;2023-12-29T07:43:35;67.09;52.74;89.88;;
72276;Laerm;61204;49.980;8.358;2023-12-29T07:46:02;62.74;52.98;82.42;;
72276;Laerm;61204;49.980;8.358;2023-12-29T07:48:28;62.22;52.68;82.30;;
72276;Laerm;61204;49.980;8.358;2023-12-29T07:50:53;61.16;52.25;77.73;;
72276;Laerm;61204;49.980;8.358;2023-12-29T07:53:19;62.10;53.72;79.26;;
72276;Laerm;61204;49.980;8.358;2023-12-29T07:55:45;61.07;52.43;76.79;;
72276;Laerm;61204;49.980;8.358;2023-12-29T07:58:12;63.15;53.45;80.94;;
72276;Laerm;61204;49.980;8.358;2023-12-29T08:00:37;61.18;52.16;75.34;;
72276;Laerm;61204;49.980;8.358;2023-12-29T08:03:05;59.57;52.82;76.81;;
72276;Laerm;61204;49.980;8.358;2023-12-29T08:05:35;62.50;52.12;82.67;;
72276;Laerm;61204;49.980;8.358;2023-12-29T08:08:00;63.97;54.27;84.34;;
72276;Laerm;61204;49.980;8.358;2023-12-29T08:10:26;58.94;52.90;75.53;;
72276;Laerm;61204;49.980;8.358;2023-12-29T08:12:51;59.34;52.58;76.91;;
72276;Laerm;61204;49.980;8.358;2023-12-29T08:15:17;60.72;54.15;85.37;;
72276;Laerm;61204;49.980;8.358;2023-12-29T08:17:43;58.03;51.21;70.86;;
72276;Laerm;61204;49.980;8.358;2023-12-29T08:20:09;68.73;52.66;90.09;;
72276;Laerm;61204;49.980;8.358;2023-12-29T08:22:35;62.38;52.68;82.55;;
72276;Laerm;61204;49.980;8.358;2023-12-29T08:25:01;62.40;52.19;82.01;;
72276;Laerm;61204;49.980;8.358;2023-12-29T08:27:26;69.72;53.00;92.19;;
72276;Laerm;61204;49.980;8.358;2023-12-29T08:29:52;59.34;53.35;75.17;;
72276;Laerm;61204;49.980;8.358;2023-12-29T08:32:19;62.24;52.28;84.17;;
72276;Laerm;61204;49.980;8.358;2023-12-29T08:34:46;62.98;53.67;84.57;;
72276;Laerm;61204;49.980;8.358;2023-12-29T08:37:12;67.94;53.09;90.57;;
72276;Laerm;61204;49.980;8.358;2023-12-29T08:39:41;63.66;53.41;80.51;;
72276;Laerm;61204;49.980;8.358;2023-12-29T08:42:06;61.85;54.02;81.99;;
72276;Laerm;61204;49.980;8.358;2023-12-29T08:44:32;61.46;53.77;80.98;;
72276;Laerm;61204;49.980;8.358;2023-12-29T08:46:58;59.61;53.71;74.97;;
72276;Laerm;61204;49.980;8.358;2023-12-29T08:49:23;60.41;53.88;75.39;;
72276;Laerm;61204;49.980;8.358;2023-12-29T08:51:49;59.55;53.21;73.29;;
72276;Laerm;61204;49.980;8.358;2023-12-29T08:54:19;60.10;52.77;78.76;;
72276;Laerm;61204;49.980;8.358;2023-12-29T08:56:49;61.57;53.86;81.16;;
72276;Laerm;61204;49.980;8.358;2023-12-29T08:59:15;59.69;52.48;75.83;;
72276;Laerm;61204;49.980;8.358;2023-12-29T09:01:40;59.71;52.91;78.21;;
72276;Laerm;61204;49.980;8.358;2023-12-29T09:04:06;66.87;54.47;88.19;;
72276;Laerm;61204;49.980;8.358;2023-12-29T09:06:34;58.90;53.42;74.71;;
72276;Laerm;61204;49.980;8.358;2023-12-29T09:09:00;59.47;53.48;79.63;;
72276;Laerm;61204;49.980;8.358;2023-12-29T09:11:25;58.05;52.97;68.91;;
72276;Laerm;61204;49.980;8.358;2023-12-29T09:13:52;60.54;53.79;79.47;;
72276;Laerm;61204;49.980;8.358;2023-12-29T09:16:18;58.92;54.14;73.30;;
72276;Laerm;61204;49.980;8.358;2023-12-29T09:18:44;59.40;54.33;70.29;;
72276;Laerm;61204;49.980;8.358;2023-12-29T09:21:10;59.08;53.15;78.33;;
72276;Laerm;61204;49.980;8.358;2023-12-29T09:23:35;57.95;53.52;71.97;;
72276;Laerm;61204;49.980;8.358;2023-12-29T09:26:03;58.83;53.89;70.05;;
72276;Laerm;61204;49.980;8.358;2023-12-29T09:28:28;58.67;54.14;67.82;;
72276;Laerm;61204;49.980;8.358;2023-12-29T09:30:54;60.55;53.77;79.49;;
72276;Laerm;61204;49.980;8.358;2023-12-29T09:33:22;60.48;54.00;75.93;;
72276;Laerm;61204;49.980;8.358;2023-12-29T09:35:51;58.28;54.50;72.53;;
72276;Laerm;61204;49.980;8.358;2023-12-29T09:38:18;61.82;54.00;84.46;;
72276;Laerm;61204;49.980;8.358;2023-12-29T09:40:46;63.99;54.76;82.63;;
72276;Laerm;61204;49.980;8.358;2023-12-29T09:43:15;61.43;53.90;82.20;;
72276;Laerm;61204;49.980;8.358;2023-12-29T09:45:45;61.42;54.47;77.82;;
72276;Laerm;61204;49.980;8.358;2023-12-29T09:48:16;64.07;54.21;84.13;;
72276;Laerm;61204;49.980;8.358;2023-12-29T09:50:50;59.43;54.33;82.18;;
72276;Laerm;61204;49.980;8.358;2023-12-29T09:53:17;58.99;53.34;75.35;;
72276;Laerm;61204;49.980;8.358;2023-12-29T09:55:43;64.27;55.30;82.13;;
72276;Laerm;61204;49.980;8.358;2023-12-29T09:58:12;59.08;52.97;73.13;;
72276;Laerm;61204;49.980;8.358;2023-12-29T10:00:39;61.71;54.56;77.81;;
72276;Laerm;61204;49.980;8.358;2023-12-29T10:03:05;63.69;53.34;84.62;;
72276;Laerm;61204;49.980;8.358;2023-12-29T10:05:31;62.26;53.99;78.46;;
72276;Laerm;61204;49.980;8.358;2023-12-29T10:08:02;64.49;54.91;81.49;;
72276;Laerm;61204;49.980;8.358;2023-12-29T10:10:33;63.44;54.41;84.18;;
72276;Laerm;61204;49.980;8.358;2023-12-29T10:13:03;65.64;53.15;83.38;;
72276;Laerm;61204;49.980;8.358;2023-12-29T10:15:50;60.67;53.51;80.98;;
72276;Laerm;61204;49.980;8.358;2023-12-29T10:18:43;73.69;54.99;92.69;;
72276;Laerm;61204;49.980;8.358;2023-12-29T10:22:01;70.48;54.00;87.49;;
72276;Laerm;61204;49.980;8.358;2023-12-29T10:24:29;66.50;55.46;87.60;;
72276;Laerm;61204;49.980;8.358;2023-12-29T10:26:55;60.02;54.54;78.10;;
72276;Laerm;61204;49.980;8.358;2023-12-29T10:29:22;67.36;53.78;84.84;;
72276;Laerm;61204;49.980;8.358;2023-12-29T10:31:50;66.91;53.83;83.26;;
72276;Laerm;61204;49.980;8.358;2023-12-29T10:34:24;66.55;53.24;88.13;;
72276;Laerm;61204;49.980;8.358;2023-12-29T10:36:59;65.36;54.89;84.79;;
72276;Laerm;61204;49.980;8.358;2023-12-29T10:39:35;62.15;55.03;82.93;;
72276;Laerm;61204;49.980;8.358;2023-12-29T10:42:08;70.30;54.16;89.17;;
72276;Laerm;61204;49.980;8.358;2023-12-29T10:44:36;70.44;55.15;90.71;;
72276;Laerm;61204;49.980;8.358;2023-12-29T10:47:13;73.07;54.79;92.88;;
72276;Laerm;61204;49.980;8.358;2023-12-29T10:49:42;63.93;54.48;83.46;;
72276;Laerm;61204;49.980;8.358;2023-12-29T10:52:16;59.64;53.58;76.35;;
72276;Laerm;61204;49.980;8.358;2023-12-29T10:54:45;61.33;54.55;81.25;;
72276;Laerm;61204;49.980;8.358;2023-12-29T10:57:12;66.46;52.48;82.21;;
72276;Laerm;61204;49.980;8.358;2023-12-29T10:59:41;66.51;54.70;85.31;;
72276;Laerm;61204;49.980;8.358;2023-12-29T11:02:12;65.33;54.85;85.38;;
72276;Laerm;61204;49.980;8.358;2023-12-29T11:04:40;73.74;54.24;93.58;;
72276;Laerm;61204;49.980;8.358;2023-12-29T11:07:07;69.56;54.24;85.57;;
72276;Laerm;61204;49.980;8.358;2023-12-29T11:09:33;65.90;54.51;87.41;;
72276;Laerm;61204;49.980;8.358;2023-12-29T11:12:04;68.54;54.27;88.74;;
72276;Laerm;61204;49.980;8.358;2023-12-29T11:14:32;64.45;55.05;84.79;;
72276;Laerm;61204;49.980;8.358;2023-12-29T11:17:00;69.51;54.86;89.89;;
72276;Laerm;61204;49.980;8.358;2023-12-29T11:19:27;61.82;53.37;84.43;;
72276;Laerm;61204;49.980;8.358;2023-12-29T11:21:56;66.05;54.66;86.92;;
72276;Laerm;61204;49.980;8.358;2023-12-29T11:24:23;64.61;53.37;85.00;;
72276;Laerm;61204;49.980;8.358;2023-12-29T11:26:53;69.74;54.90;89.62;;
72276;Laerm;61204;49.980;8.358;2023-12-29T11:29:19;69.08;54.72;88.27;;
72276;Laerm;61204;49.980;8.358;2023-12-29T11:31:49;67.01;54.32;84.22;;
72276;Laerm;61204;49.980;8.358;2023-12-29T11:34:38;67.51;53.91;88.54;;
72276;Laerm;61204;49.980;8.358;2023-12-29T11:37:56;69.09;52.65;89.40;;
72276;Laerm;61204;49.980;8.358;2023-12-29T11:40:45;63.58;53.88;82.59;;
72276;Laerm;61204;49.980;8.358;2023-12-29T11:43:17;63.61;53.54;81.37;;
72276;Laerm;61204;49.980;8.358;2023-12-29T11:45:44;67.60;52.63;90.78;;
72276;Laerm;61204;49.980;8.358;2023-12-29T11:48:11;67.92;53.53;86.57;;
72276;Laerm;61204;49.980;8.358;2023-12-29T11:50:39;66.26;52.54;86.63;;
72276;Laerm;61204;49.980;8.358;2023-12-29T11:53:30;70.20;52.79;90.96;;
72276;Laerm;61204;49.980;8.358;2023-12-29T11:55:56;69.97;53.24;89.85;;
72276;Laerm;61204;49.980;8.358;2023-12-29T11:58:28;63.65;52.87;83.19;;
72276;Laerm;61204;49.980;8.358;2023-12-29T12:00:54;63.39;52.86;87.12;;
72276;Laerm;61204;49.980;8.358;2023-12-29T12:03:32;68.47;53.57;93.18;;
72276;Laerm;61204;49.980;8.358;2023-12-29T12:05:58;71.47;53.98;90.93;;
72276;Laerm;61204;49.980;8.358;2023-12-29T12:08:36;69.14;53.18;88.21;;
72276;Laerm;61204;49.980;8.358;2023-12-29T12:11:42;66.67;54.16;88.22;;
72276;Laerm;61204;49.980;8.358;2023-12-29T12:14:07;67.04;54.32;82.69;;
72276;Laerm;61204;49.980;8.358;2023-12-29T12:16:47;68.78;54.29;88.37;;
72276;Laerm;61204;49.980;8.358;2023-12-29T12:19:15;68.97;54.80;86.57;;
72276;Laerm;61204;49.980;8.358;2023-12-29T12:21:47;70.07;54.24;91.39;;
72276;Laerm;61204;49.980;8.358;2023-12-29T12:24:18;66.46;53.66;85.60;;
72276;Laerm;61204;49.980;8.358;2023-12-29T12:26:45;70.39;54.70;88.70;;
72276;Laerm;61204;49.980;8.358;2023-12-29T12:29:14;69.62;55.15;86.86;;
72276;Laerm;61204;49.980;8.358;2023-12-29T12:31:57;72.61;55.64;94.06;;
72276;Laerm;61204;49.980;8.358;2023-12-29T12:34:23;71.27;54.44;92.91;;
72276;Laerm;61204;49.980;8.358;2023-12-29T12:36:51;70.33;55.24;87.71;;
72276;Laerm;61204;49.980;8.358;2023-12-29T12:39:19;64.84;54.25;84.99;;
72276;Laerm;61204;49.980;8.358;2023-12-29T12:41:46;72.39;55.42;88.95;;
72276;Laerm;61204;49.980;8.358;2023-12-29T12:44:14;75.90;56.25;95.83;;
72276;Laerm;61204;49.980;8.358;2023-12-29T12:46:57;66.39;53.26;87.14;;
72276;Laerm;61204;49.980;8.358;2023-12-29T12:49:23;72.59;55.94;88.10;;
72276;Laerm;61204;49.980;8.358;2023-12-29T12:51:49;74.43;55.13;90.69;;
72276;Laerm;61204;49.980;8.358;2023-12-29T12:54:19;77.78;54.94;98.60;;
72276;Laerm;61204;49.980;8.358;2023-12-29T12:56:46;75.20;56.16;93.01;;
72276;Laerm;61204;49.980;8.358;2023-12-29T12:59:13;76.13;55.35;92.82;;
72276;Laerm;61204;49.980;8.358;2023-12-29T13:01:40;72.18;55.98;96.86;;
72276;Laerm;61204;49.980;8.358;2023-12-29T13:04:08;72.24;55.08;91.29;;
72276;Laerm;61204;49.980;8.358;2023-12-29T13:06:39;71.69;56.12;91.56;;
72276;Laerm;61204;49.980;8.358;2023-12-29T13:09:06;71.23;55.19;93.50;;
72276;Laerm;61204;49.980;8.358;2023-12-29T13:11:37;76.65;55.30;95.27;;
72276;Laerm;61204;49.980;8.358;2023-12-29T13:14:03;81.42;54.44;98.87;;
72276;Laerm;61204;49.980;8.358;2023-12-29T13:16:37;74.18;55.63;94.44;;
72276;Laerm;61204;49.980;8.358;2023-12-29T13:19:24;74.15;55.96;95.27;;
72276;Laerm;61204;49.980;8.358;2023-12-29T13:21:54;67.22;54.74;86.74;;
72276;Laerm;61204;49.980;8.358;2023-12-29T13:24:25;66.08;54.55;84.87;;
72276;Laerm;61204;49.980;8.358;2023-12-29T13:26:57;66.52;54.04;89.77;;
72276;Laerm;61204;49.980;8.358;2023-12-29T13:29:26;69.20;54.74;87.53;;
72276;Laerm;61204;49.980;8.358;2023-12-29T13:32:22;75.01;55.34;96.81;;
72276;Laerm;61204;49.980;8.358;2023-12-29T13:35:23;78.14;54.82;97.71;;
72276;Laerm;61204;49.980;8.358;2023-12-29T13:38:02;77.73;56.93;99.73;;
72276;Laerm;61204;49.980;8.358;2023-12-29T13:40:44;70.72;54.23;91.61;;
72276;Laerm;61204;49.980;8.358;2023-12-29T13:43:17;74.97;55.79;94.56;;
72276;Laerm;61204;49.980;8.358;2023-12-29T13:45:51;78.13;56.12;98.84;;
72276;Laerm;61204;49.980;8.358;2023-12-29T13:48:19;73.41;55.77;89.56;;
72276;Laerm;61204;49.980;8.358;2023-12-29T13:50:48;69.04;52.86;87.85;;
72276;Laerm;61204;49.980;8.358;2023-12-29T13:53:23;66.41;54.46;85.13;;